New Centerville, Idaho
Current Conditions -  °F | °C
As of 8:53 AM on Saturday 25 Oct 2014 (Local Time) from KBOI Reporting Station
Clear Clear  
Wind Chill: 42°   Ceiling: Unl
Heat Index: 45°   Visibility: 10mi
Dew Point: 41°   Wind: 6mph
Humidity: 86%   Direction: 10°N
Pressure: 29.83"   Gusts: NA
Location:  43.8008°N, 115.834°W
Report Text: KBOI 251453Z 01005KT 10SM R10R/6000FT CLR 07/05 A2983 RMK AO2 SLP097 T00720050 55004 $
Loading
Personal Weather Stations






























Interactive Weather Map
Tropical Storm Tracking
New forecast layout! Learn more

10-Day Weather Forecast

Advertisements
Track Severe Weather on mobile